sensor_id;sensor_type;location;lat;lon;timestamp;pressure;altitude;pressure_sealevel;temperature;humidity
76553;BME280;65395;53.168;18.156;2023-02-28T00:01:12;102607.42;;;-4.45;75.36
76553;BME280;65395;53.168;18.156;2023-02-28T00:03:39;102607.90;;;-4.48;75.24
76553;BME280;65395;53.168;18.156;2023-02-28T00:06:07;102609.22;;;-4.53;75.21
76553;BME280;65395;53.168;18.156;2023-02-28T00:08:36;102609.83;;;-4.58;75.35
76553;BME280;65395;53.168;18.156;2023-02-28T00:11:05;102607.83;;;-4.62;75.22
76553;BME280;65395;53.168;18.156;2023-02-28T00:13:34;102605.08;;;-4.68;75.42
76553;BME280;65395;53.168;18.156;2023-02-28T00:16:05;102606.33;;;-4.72;75.60
76553;BME280;65395;53.168;18.156;2023-02-28T00:18:33;102602.95;;;-4.75;75.75
76553;BME280;65395;53.168;18.156;2023-02-28T00:20:59;102605.95;;;-4.76;75.56
76553;BME280;65395;53.168;18.156;2023-02-28T00:23:26;102605.15;;;-4.74;75.98
76553;BME280;65395;53.168;18.156;2023-02-28T00:25:54;102607.13;;;-4.72;75.96
76553;BME280;65395;53.168;18.156;2023-02-28T00:28:21;102607.46;;;-4.68;76.03
76553;BME280;65395;53.168;18.156;2023-02-28T00:30:48;102610.78;;;-4.65;75.92
76553;BME280;65395;53.168;18.156;2023-02-28T00:33:15;102611.14;;;-4.61;76.01
76553;BME280;65395;53.168;18.156;2023-02-28T00:35:42;102608.70;;;-4.60;75.76
76553;BME280;65395;53.168;18.156;2023-02-28T00:38:14;102604.04;;;-4.64;76.21
76553;BME280;65395;53.168;18.156;2023-02-28T00:40:41;102605.08;;;-4.68;75.88
76553;BME280;65395;53.168;18.156;2023-02-28T00:43:08;102608.52;;;-4.74;75.92
76553;BME280;65395;53.168;18.156;2023-02-28T00:45:34;102610.09;;;-4.80;75.66
76553;BME280;65395;53.168;18.156;2023-02-28T00:48:01;102609.29;;;-4.86;75.57
76553;BME280;65395;53.168;18.156;2023-02-28T00:50:28;102608.98;;;-4.94;75.14
76553;BME280;65395;53.168;18.156;2023-02-28T00:52:57;102611.21;;;-5.02;76.01
76553;BME280;65395;53.168;18.156;2023-02-28T00:55:24;102610.08;;;-5.08;76.00
76553;BME280;65395;53.168;18.156;2023-02-28T00:57:50;102605.48;;;-5.12;76.15
76553;BME280;65395;53.168;18.156;2023-02-28T01:00:17;102608.13;;;-5.15;76.23
76553;BME280;65395;53.168;18.156;2023-02-28T01:02:44;102609.26;;;-5.18;76.45
76553;BME280;65395;53.168;18.156;2023-02-28T01:05:11;102613.57;;;-5.18;76.23
76553;BME280;65395;53.168;18.156;2023-02-28T01:07:38;102611.73;;;-5.19;76.34
76553;BME280;65395;53.168;18.156;2023-02-28T01:10:05;102617.68;;;-5.18;76.16
76553;BME280;65395;53.168;18.156;2023-02-28T01:12:35;102615.51;;;-5.17;76.20
76553;BME280;65395;53.168;18.156;2023-02-28T01:15:02;102620.52;;;-5.16;76.23
76553;BME280;65395;53.168;18.156;2023-02-28T01:17:28;102621.27;;;-5.15;76.46
76553;BME280;65395;53.168;18.156;2023-02-28T01:19:55;102622.04;;;-5.15;76.28
76553;BME280;65395;53.168;18.156;2023-02-28T01:22:25;102626.33;;;-5.17;76.10
76553;BME280;65395;53.168;18.156;2023-02-28T01:24:52;102621.33;;;-5.21;76.03
76553;BME280;65395;53.168;18.156;2023-02-28T01:27:19;102616.85;;;-5.25;76.13
76553;BME280;65395;53.168;18.156;2023-02-28T01:29:46;102614.98;;;-5.28;76.45
76553;BME280;65395;53.168;18.156;2023-02-28T01:32:13;102615.17;;;-5.33;76.43
76553;BME280;65395;53.168;18.156;2023-02-28T01:34:39;102615.34;;;-5.36;76.51
76553;BME280;65395;53.168;18.156;2023-02-28T01:37:06;102611.89;;;-5.40;76.48
76553;BME280;65395;53.168;18.156;2023-02-28T01:39:33;102611.59;;;-5.45;76.51
76553;BME280;65395;53.168;18.156;2023-02-28T01:42:00;102611.14;;;-5.47;76.48
76553;BME280;65395;53.168;18.156;2023-02-28T01:47:13;102609.45;;;-5.46;76.63
76553;BME280;65395;53.168;18.156;2023-02-28T01:49:40;102610.26;;;-5.42;76.76
76553;BME280;65395;53.168;18.156;2023-02-28T01:52:10;102604.27;;;-5.35;76.75
76553;BME280;65395;53.168;18.156;2023-02-28T01:54:41;102603.77;;;-5.32;76.75
76553;BME280;65395;53.168;18.156;2023-02-28T01:57:11;102605.95;;;-5.29;76.64
76553;BME280;65395;53.168;18.156;2023-02-28T01:59:50;102603.45;;;-5.28;76.56
76553;BME280;65395;53.168;18.156;2023-02-28T02:02:21;102601.98;;;-5.28;76.59
76553;BME280;65395;53.168;18.156;2023-02-28T02:04:56;102601.14;;;-5.31;76.47
76553;BME280;65395;53.168;18.156;2023-02-28T02:07:26;102597.58;;;-5.33;76.58
76553;BME280;65395;53.168;18.156;2023-02-28T02:10:04;102599.25;;;-5.37;76.80
76553;BME280;65395;53.168;18.156;2023-02-28T02:15:32;102601.93;;;-5.44;77.51
76553;BME280;65395;53.168;18.156;2023-02-28T02:18:13;102601.86;;;-5.49;76.89
76553;BME280;65395;53.168;18.156;2023-02-28T02:21:14;102603.17;;;-5.54;76.84
76553;BME280;65395;53.168;18.156;2023-02-28T02:24:09;102609.64;;;-5.60;76.58
76553;BME280;65395;53.168;18.156;2023-02-28T02:32:45;102612.01;;;-5.61;77.02
76553;BME280;65395;53.168;18.156;2023-02-28T02:35:27;102613.30;;;-5.57;77.04
76553;BME280;65395;53.168;18.156;2023-02-28T02:38:08;102612.48;;;-5.53;77.02
76553;BME280;65395;53.168;18.156;2023-02-28T02:40:46;102615.52;;;-5.51;77.01
76553;BME280;65395;53.168;18.156;2023-02-28T02:43:24;102615.48;;;-5.48;76.96
76553;BME280;65395;53.168;18.156;2023-02-28T02:45:59;102614.65;;;-5.49;76.95
76553;BME280;65395;53.168;18.156;2023-02-28T02:48:33;102617.20;;;-5.50;76.91
76553;BME280;65395;53.168;18.156;2023-02-28T02:51:04;102615.21;;;-5.53;77.07
76553;BME280;65395;53.168;18.156;2023-02-28T02:53:44;102611.69;;;-5.56;76.78
76553;BME280;65395;53.168;18.156;2023-02-28T02:56:18;102611.18;;;-5.60;76.82
76553;BME280;65395;53.168;18.156;2023-02-28T02:58:49;102610.88;;;-5.64;77.69
76553;BME280;65395;53.168;18.156;2023-02-28T03:01:20;102607.68;;;-5.69;77.63
76553;BME280;65395;53.168;18.156;2023-02-28T03:03:57;102607.67;;;-5.72;77.36
76553;BME280;65395;53.168;18.156;2023-02-28T03:06:25;102607.00;;;-5.75;77.37
76553;BME280;65395;53.168;18.156;2023-02-28T03:08:52;102607.13;;;-5.76;77.39
76553;BME280;65395;53.168;18.156;2023-02-28T03:11:20;102610.09;;;-5.77;77.55
76553;BME280;65395;53.168;18.156;2023-02-28T03:13:58;102608.27;;;-5.75;77.84
76553;BME280;65395;53.168;18.156;2023-02-28T03:16:46;102608.22;;;-5.73;77.26
76553;BME280;65395;53.168;18.156;2023-02-28T03:19:45;102609.71;;;-5.68;77.25
76553;BME280;65395;53.168;18.156;2023-02-28T03:25:02;102614.36;;;-5.69;77.09
76553;BME280;65395;53.168;18.156;2023-02-28T03:30:27;102623.05;;;-5.74;77.01
76553;BME280;65395;53.168;18.156;2023-02-28T03:33:14;102621.25;;;-5.79;76.68
76553;BME280;65395;53.168;18.156;2023-02-28T03:35:48;102622.20;;;-5.84;76.98
76553;BME280;65395;53.168;18.156;2023-02-28T03:38:22;102621.34;;;-5.90;76.92
76553;BME280;65395;53.168;18.156;2023-02-28T03:43:35;102620.23;;;-6.01;76.85
76553;BME280;65395;53.168;18.156;2023-02-28T03:46:08;102623.25;;;-6.06;76.95
76553;BME280;65395;53.168;18.156;2023-02-28T03:48:45;102629.30;;;-6.10;77.20
76553;BME280;65395;53.168;18.156;2023-02-28T03:51:17;102629.38;;;-6.14;77.38
76553;BME280;65395;53.168;18.156;2023-02-28T03:53:50;102631.98;;;-6.14;77.35
76553;BME280;65395;53.168;18.156;2023-02-28T03:56:24;102633.55;;;-6.14;77.03
76553;BME280;65395;53.168;18.156;2023-02-28T03:58:57;102633.34;;;-6.14;77.03
76553;BME280;65395;53.168;18.156;2023-02-28T04:01:31;102635.91;;;-6.14;77.36
76553;BME280;65395;53.168;18.156;2023-02-28T04:04:02;102635.38;;;-6.12;77.29
76553;BME280;65395;53.168;18.156;2023-02-28T04:06:32;102635.39;;;-6.10;76.98
76553;BME280;65395;53.168;18.156;2023-02-28T04:08:59;102636.59;;;-6.08;77.37
76553;BME280;65395;53.168;18.156;2023-02-28T04:11:36;102632.15;;;-6.06;77.58
76553;BME280;65395;53.168;18.156;2023-02-28T04:14:04;102635.10;;;-6.04;78.19
76553;BME280;65395;53.168;18.156;2023-02-28T04:16:36;102633.28;;;-6.03;78.51
76553;BME280;65395;53.168;18.156;2023-02-28T04:19:04;102632.70;;;-6.02;78.06
76553;BME280;65395;53.168;18.156;2023-02-28T04:21:36;102634.92;;;-6.04;78.25
76553;BME280;65395;53.168;18.156;2023-02-28T04:24:03;102635.86;;;-6.07;78.37
76553;BME280;65395;53.168;18.156;2023-02-28T04:26:31;102636.36;;;-6.11;77.75
76553;BME280;65395;53.168;18.156;2023-02-28T04:28:59;102638.64;;;-6.16;77.58
76553;BME280;65395;53.168;18.156;2023-02-28T04:31:26;102635.77;;;-6.20;77.42
76553;BME280;65395;53.168;18.156;2023-02-28T04:33:53;102637.56;;;-6.24;77.34
76553;BME280;65395;53.168;18.156;2023-02-28T04:36:20;102645.48;;;-6.27;77.22
76553;BME280;65395;53.168;18.156;2023-02-28T04:38:47;102646.92;;;-6.29;77.46
76553;BME280;65395;53.168;18.156;2023-02-28T04:41:14;102647.55;;;-6.29;77.66
76553;BME280;65395;53.168;18.156;2023-02-28T04:43:41;102647.27;;;-6.25;77.39
76553;BME280;65395;53.168;18.156;2023-02-28T04:46:09;102643.67;;;-6.23;77.60
76553;BME280;65395;53.168;18.156;2023-02-28T04:48:37;102643.27;;;-6.18;78.11
76553;BME280;65395;53.168;18.156;2023-02-28T04:51:07;102640.52;;;-6.14;78.01
76553;BME280;65395;53.168;18.156;2023-02-28T04:53:36;102643.30;;;-6.10;77.85
76553;BME280;65395;53.168;18.156;2023-02-28T04:56:03;102648.90;;;-6.10;77.45
76553;BME280;65395;53.168;18.156;2023-02-28T04:58:30;102650.54;;;-6.13;77.69
76553;BME280;65395;53.168;18.156;2023-02-28T05:01:06;102646.34;;;-6.14;77.51
76553;BME280;65395;53.168;18.156;2023-02-28T05:03:39;102648.70;;;-6.17;77.51
76553;BME280;65395;53.168;18.156;2023-02-28T05:06:08;102647.13;;;-6.22;77.55
76553;BME280;65395;53.168;18.156;2023-02-28T05:08:35;102650.47;;;-6.25;77.82
76553;BME280;65395;53.168;18.156;2023-02-28T05:11:03;102649.69;;;-6.29;77.81
76553;BME280;65395;53.168;18.156;2023-02-28T05:13:30;102647.23;;;-6.33;77.83
76553;BME280;65395;53.168;18.156;2023-02-28T05:15:57;102648.70;;;-6.36;77.56
76553;BME280;65395;53.168;18.156;2023-02-28T05:18:23;102650.28;;;-6.39;77.60
76553;BME280;65395;53.168;18.156;2023-02-28T05:20:50;102651.60;;;-6.40;77.55
76553;BME280;65395;53.168;18.156;2023-02-28T05:23:17;102654.51;;;-6.40;77.54
76553;BME280;65395;53.168;18.156;2023-02-28T05:25:46;102652.67;;;-6.39;77.58
76553;BME280;65395;53.168;18.156;2023-02-28T05:28:13;102654.77;;;-6.37;77.50
76553;BME280;65395;53.168;18.156;2023-02-28T05:30:40;102655.42;;;-6.35;77.48
76553;BME280;65395;53.168;18.156;2023-02-28T05:33:10;102652.63;;;-6.34;77.51
76553;BME280;65395;53.168;18.156;2023-02-28T05:35:39;102648.52;;;-6.34;77.48
76553;BME280;65395;53.168;18.156;2023-02-28T05:38:06;102650.98;;;-6.35;77.57
76553;BME280;65395;53.168;18.156;2023-02-28T05:40:33;102654.14;;;-6.38;77.56
76553;BME280;65395;53.168;18.156;2023-02-28T05:43:00;102654.88;;;-6.41;77.38
76553;BME280;65395;53.168;18.156;2023-02-28T05:45:26;102655.30;;;-6.43;77.27
76553;BME280;65395;53.168;18.156;2023-02-28T05:47:54;102657.36;;;-6.46;77.28
76553;BME280;65395;53.168;18.156;2023-02-28T05:50:21;102660.27;;;-6.48;77.72
76553;BME280;65395;53.168;18.156;2023-02-28T05:52:50;102660.61;;;-6.50;78.09
76553;BME280;65395;53.168;18.156;2023-02-28T05:55:16;102660.84;;;-6.50;78.20
76553;BME280;65395;53.168;18.156;2023-02-28T05:57:44;102658.38;;;-6.49;77.64
76553;BME280;65395;53.168;18.156;2023-02-28T06:00:11;102666.17;;;-6.49;78.26
76553;BME280;65395;53.168;18.156;2023-02-28T06:02:39;102662.71;;;-6.46;78.16
76553;BME280;65395;53.168;18.156;2023-02-28T06:05:14;102661.68;;;-6.42;77.76
76553;BME280;65395;53.168;18.156;2023-02-28T06:07:41;102663.44;;;-6.34;78.46
76553;BME280;65395;53.168;18.156;2023-02-28T06:10:09;102668.64;;;-6.23;78.64
76553;BME280;65395;53.168;18.156;2023-02-28T06:12:37;102669.09;;;-6.14;78.01
76553;BME280;65395;53.168;18.156;2023-02-28T06:15:04;102668.80;;;-6.04;77.85
76553;BME280;65395;53.168;18.156;2023-02-28T06:17:31;102671.18;;;-5.96;77.92
76553;BME280;65395;53.168;18.156;2023-02-28T06:19:58;102671.54;;;-5.90;77.50
76553;BME280;65395;53.168;18.156;2023-02-28T06:22:24;102674.80;;;-5.86;77.87
76553;BME280;65395;53.168;18.156;2023-02-28T06:24:51;102682.76;;;-5.82;77.99
76553;BME280;65395;53.168;18.156;2023-02-28T06:27:19;102684.64;;;-5.78;77.57
76553;BME280;65395;53.168;18.156;2023-02-28T06:29:46;102681.67;;;-5.75;77.48
76553;BME280;65395;53.168;18.156;2023-02-28T06:32:13;102679.31;;;-5.71;77.72
76553;BME280;65395;53.168;18.156;2023-02-28T06:34:40;102679.54;;;-5.68;77.87
76553;BME280;65395;53.168;18.156;2023-02-28T06:37:07;102685.05;;;-5.64;78.12
76553;BME280;65395;53.168;18.156;2023-02-28T06:39:33;102685.07;;;-5.61;78.04
76553;BME280;65395;53.168;18.156;2023-02-28T06:42:01;102690.81;;;-5.56;78.17
76553;BME280;65395;53.168;18.156;2023-02-28T06:44:27;102695.40;;;-5.50;78.55
76553;BME280;65395;53.168;18.156;2023-02-28T06:47:03;102694.52;;;-5.41;78.87
76553;BME280;65395;53.168;18.156;2023-02-28T06:49:33;102694.39;;;-5.29;79.31
76553;BME280;65395;53.168;18.156;2023-02-28T06:52:00;102698.73;;;-5.14;79.46
76553;BME280;65395;53.168;18.156;2023-02-28T06:54:27;102703.70;;;-4.97;79.72
76553;BME280;65395;53.168;18.156;2023-02-28T06:56:54;102708.44;;;-4.79;79.45
76553;BME280;65395;53.168;18.156;2023-02-28T06:59:21;102710.44;;;-4.61;79.45
76553;BME280;65395;53.168;18.156;2023-02-28T07:01:47;102713.83;;;-4.43;79.26
76553;BME280;65395;53.168;18.156;2023-02-28T07:04:14;102715.11;;;-4.27;79.39
76553;BME280;65395;53.168;18.156;2023-02-28T07:06:41;102716.36;;;-4.13;79.28
76553;BME280;65395;53.168;18.156;2023-02-28T07:09:07;102714.84;;;-4.00;79.11
76553;BME280;65395;53.168;18.156;2023-02-28T07:11:34;102713.83;;;-3.89;78.98
76553;BME280;65395;53.168;18.156;2023-02-28T07:14:01;102716.52;;;-3.79;78.98
76553;BME280;65395;53.168;18.156;2023-02-28T07:16:28;102714.04;;;-3.70;78.81
76553;BME280;65395;53.168;18.156;2023-02-28T07:18:55;102713.84;;;-3.63;78.82
76553;BME280;65395;53.168;18.156;2023-02-28T07:21:22;102712.16;;;-3.56;78.76
76553;BME280;65395;53.168;18.156;2023-02-28T07:23:49;102711.70;;;-3.49;78.67
76553;BME280;65395;53.168;18.156;2023-02-28T07:26:18;102711.39;;;-3.43;78.70
76553;BME280;65395;53.168;18.156;2023-02-28T07:28:47;102708.49;;;-3.34;78.80
76553;BME280;65395;53.168;18.156;2023-02-28T07:31:14;102704.86;;;-3.23;78.77
76553;BME280;65395;53.168;18.156;2023-02-28T07:33:42;102704.22;;;-3.11;78.73
76553;BME280;65395;53.168;18.156;2023-02-28T07:36:13;102709.54;;;-2.98;78.65
76553;BME280;65395;53.168;18.156;2023-02-28T07:38:42;102714.05;;;-2.84;78.45
76553;BME280;65395;53.168;18.156;2023-02-28T07:41:10;102711.32;;;-2.72;78.47
76553;BME280;65395;53.168;18.156;2023-02-28T07:43:37;102707.12;;;-2.61;78.32
76553;BME280;65395;53.168;18.156;2023-02-28T07:46:07;102710.02;;;-2.52;78.32
76553;BME280;65395;53.168;18.156;2023-02-28T07:48:34;102702.55;;;-2.48;78.17
76553;BME280;65395;53.168;18.156;2023-02-28T07:51:02;102713.60;;;-2.36;78.22
76553;BME280;65395;53.168;18.156;2023-02-28T07:53:29;102717.52;;;-2.32;78.26
76553;BME280;65395;53.168;18.156;2023-02-28T07:55:57;102716.08;;;-2.27;78.17
76553;BME280;65395;53.168;18.156;2023-02-28T07:58:25;102711.43;;;-2.22;78.16
76553;BME280;65395;53.168;18.156;2023-02-28T08:00:53;102711.15;;;-2.16;78.03
76553;BME280;65395;53.168;18.156;2023-02-28T08:03:21;102717.63;;;-2.10;78.07
76553;BME280;65395;53.168;18.156;2023-02-28T08:05:49;102718.69;;;-2.04;78.11
76553;BME280;65395;53.168;18.156;2023-02-28T08:08:16;102714.84;;;-1.96;78.07
76553;BME280;65395;53.168;18.156;2023-02-28T08:10:43;102715.95;;;-1.89;78.11
76553;BME280;65395;53.168;18.156;2023-02-28T08:13:10;102718.81;;;-1.80;78.06
76553;BME280;65395;53.168;18.156;2023-02-28T08:15:37;102719.60;;;-1.70;77.98
76553;BME280;65395;53.168;18.156;2023-02-28T08:18:03;102715.16;;;-1.62;77.86
76553;BME280;65395;53.168;18.156;2023-02-28T08:20:30;102717.27;;;-1.52;77.80
76553;BME280;65395;53.168;18.156;2023-02-28T08:22:57;102717.31;;;-1.43;77.61
76553;BME280;65395;53.168;18.156;2023-02-28T08:25:24;102715.95;;;-1.33;77.50
76553;BME280;65395;53.168;18.156;2023-02-28T08:27:51;102712.77;;;-1.27;77.36
76553;BME280;65395;53.168;18.156;2023-02-28T08:30:19;102712.02;;;-1.22;77.15
76553;BME280;65395;53.168;18.156;2023-02-28T08:32:46;102713.55;;;-1.13;77.14
76553;BME280;65395;53.168;18.156;2023-02-28T08:35:13;102709.82;;;-1.07;77.07
76553;BME280;65395;53.168;18.156;2023-02-28T08:37:40;102704.15;;;-1.03;76.91
76553;BME280;65395;53.168;18.156;2023-02-28T08:40:07;102704.15;;;-0.98;76.82
76553;BME280;65395;53.168;18.156;2023-02-28T08:42:34;102700.90;;;-0.93;76.79
76553;BME280;65395;53.168;18.156;2023-02-28T08:45:01;102699.59;;;-0.87;76.72
76553;BME280;65395;53.168;18.156;2023-02-28T08:47:28;102694.06;;;-0.79;76.69
76553;BME280;65395;53.168;18.156;2023-02-28T08:49:54;102688.43;;;-0.68;76.45
76553;BME280;65395;53.168;18.156;2023-02-28T08:52:21;102686.07;;;-0.56;76.17
76553;BME280;65395;53.168;18.156;2023-02-28T08:54:48;102684.36;;;-0.41;76.03
76553;BME280;65395;53.168;18.156;2023-02-28T08:57:15;102690.11;;;-0.28;75.73
76553;BME280;65395;53.168;18.156;2023-02-28T08:59:42;102690.42;;;-0.16;75.35
76553;BME280;65395;53.168;18.156;2023-02-28T09:02:13;102688.00;;;-0.05;74.98
76553;BME280;65395;53.168;18.156;2023-02-28T09:04:41;102693.45;;;0.05;74.82
76553;BME280;65395;53.168;18.156;2023-02-28T09:07:08;102693.98;;;0.15;74.67
76553;BME280;65395;53.168;18.156;2023-02-28T09:09:35;102698.08;;;0.23;74.59
76553;BME280;65395;53.168;18.156;2023-02-28T09:12:02;102700.95;;;0.28;74.57
76553;BME280;65395;53.168;18.156;2023-02-28T09:14:29;102696.20;;;0.34;74.54
76553;BME280;65395;53.168;18.156;2023-02-28T09:16:55;102694.95;;;0.39;74.40
76553;BME280;65395;53.168;18.156;2023-02-28T09:19:22;102691.78;;;0.44;73.78
76553;BME280;65395;53.168;18.156;2023-02-28T09:21:49;102688.27;;;0.47;73.59
76553;BME280;65395;53.168;18.156;2023-02-28T09:24:15;102687.76;;;0.52;73.70
76553;BME280;65395;53.168;18.156;2023-02-28T09:26:42;102691.30;;;0.57;73.31
76553;BME280;65395;53.168;18.156;2023-02-28T09:29:09;102687.48;;;0.62;72.79
76553;BME280;65395;53.168;18.156;2023-02-28T09:31:37;102691.88;;;0.68;72.93
76553;BME280;65395;53.168;18.156;2023-02-28T09:34:04;102695.45;;;0.73;72.85
76553;BME280;65395;53.168;18.156;2023-02-28T09:36:31;102698.89;;;0.79;72.94
76553;BME280;65395;53.168;18.156;2023-02-28T09:38:59;102697.88;;;0.85;72.41
76553;BME280;65395;53.168;18.156;2023-02-28T09:41:26;102696.68;;;0.91;72.28
76553;BME280;65395;53.168;18.156;2023-02-28T09:44:01;102699.14;;;0.99;72.21
76553;BME280;65395;53.168;18.156;2023-02-28T09:46:37;102698.70;;;1.04;71.86
76553;BME280;65395;53.168;18.156;2023-02-28T09:49:14;102702.46;;;1.10;71.39
76553;BME280;65395;53.168;18.156;2023-02-28T09:51:49;102699.98;;;1.16;71.34
76553;BME280;65395;53.168;18.156;2023-02-28T09:54:23;102700.92;;;1.22;70.93
76553;BME280;65395;53.168;18.156;2023-02-28T09:56:58;102700.09;;;1.30;70.52
76553;BME280;65395;53.168;18.156;2023-02-28T09:59:43;102689.91;;;1.32;69.25
76553;BME280;65395;53.168;18.156;2023-02-28T10:02:41;102694.70;;;1.43;68.87
76553;BME280;65395;53.168;18.156;2023-02-28T10:05:14;102696.26;;;1.51;69.11
76553;BME280;65395;53.168;18.156;2023-02-28T10:10:39;102696.48;;;1.64;68.57
76553;BME280;65395;53.168;18.156;2023-02-28T10:13:15;102696.53;;;1.71;68.45
76553;BME280;65395;53.168;18.156;2023-02-28T10:15:42;102694.30;;;1.76;68.38
76553;BME280;65395;53.168;18.156;2023-02-28T10:18:16;102695.62;;;1.81;68.37
76553;BME280;65395;53.168;18.156;2023-02-28T10:20:49;102694.30;;;1.88;68.36
76553;BME280;65395;53.168;18.156;2023-02-28T10:23:22;102692.80;;;1.93;68.20
76553;BME280;65395;53.168;18.156;2023-02-28T10:25:57;102686.29;;;1.99;67.84
76553;BME280;65395;53.168;18.156;2023-02-28T10:28:26;102680.34;;;2.04;68.01
76553;BME280;65395;53.168;18.156;2023-02-28T10:30:55;102678.56;;;2.10;68.11
76553;BME280;65395;53.168;18.156;2023-02-28T10:33:25;102676.21;;;2.16;67.33
76553;BME280;65395;53.168;18.156;2023-02-28T10:35:54;102672.77;;;2.23;66.53
76553;BME280;65395;53.168;18.156;2023-02-28T10:38:25;102669.34;;;2.29;66.06
76553;BME280;65395;53.168;18.156;2023-02-28T10:41:06;102667.80;;;2.35;66.56
76553;BME280;65395;53.168;18.156;2023-02-28T10:43:34;102664.88;;;2.42;66.50
76553;BME280;65395;53.168;18.156;2023-02-28T10:46:13;102670.79;;;2.49;66.50
76553;BME280;65395;53.168;18.156;2023-02-28T10:48:44;102670.87;;;2.57;65.97
76553;BME280;65395;53.168;18.156;2023-02-28T10:51:16;102665.41;;;2.62;65.52
76553;BME280;65395;53.168;18.156;2023-02-28T10:53:48;102666.59;;;2.68;65.53
76553;BME280;65395;53.168;18.156;2023-02-28T10:56:19;102662.57;;;2.74;65.22
76553;BME280;65395;53.168;18.156;2023-02-28T10:58:53;102665.30;;;2.81;65.33
76553;BME280;65395;53.168;18.156;2023-02-28T11:01:37;102662.23;;;2.91;65.35
76553;BME280;65395;53.168;18.156;2023-02-28T11:07:17;102661.41;;;3.09;64.23
76553;BME280;65395;53.168;18.156;2023-02-28T11:09:48;102663.90;;;3.14;64.37
76553;BME280;65395;53.168;18.156;2023-02-28T11:12:30;102657.30;;;3.18;64.40
76553;BME280;65395;53.168;18.156;2023-02-28T11:15:00;102658.31;;;3.25;64.63
76553;BME280;65395;53.168;18.156;2023-02-28T11:17:30;102655.98;;;3.33;64.09
76553;BME280;65395;53.168;18.156;2023-02-28T11:20:02;102654.10;;;3.40;64.27
76553;BME280;65395;53.168;18.156;2023-02-28T11:22:33;102653.70;;;3.50;64.29
76553;BME280;65395;53.168;18.156;2023-02-28T11:25:09;102642.60;;;3.55;64.30
76553;BME280;65395;53.168;18.156;2023-02-28T11:27:45;102647.95;;;3.69;63.98
76553;BME280;65395;53.168;18.156;2023-02-28T11:30:27;102646.17;;;3.79;63.73
76553;BME280;65395;53.168;18.156;2023-02-28T11:32:55;102639.29;;;3.88;63.31
76553;BME280;65395;53.168;18.156;2023-02-28T11:35:31;102642.14;;;3.96;62.93
76553;BME280;65395;53.168;18.156;2023-02-28T11:38:01;102636.54;;;4.01;62.35
76553;BME280;65395;53.168;18.156;2023-02-28T11:41:02;102636.13;;;4.07;62.88
76553;BME280;65395;53.168;18.156;2023-02-28T11:43:46;102631.17;;;4.17;62.77
76553;BME280;65395;53.168;18.156;2023-02-28T11:46:49;102628.11;;;4.26;62.19
76553;BME280;65395;53.168;18.156;2023-02-28T11:52:14;102622.63;;;4.29;61.60
76553;BME280;65395;53.168;18.156;2023-02-28T11:57:49;102617.41;;;4.31;61.32
76553;BME280;65395;53.168;18.156;2023-02-28T12:00:40;102611.85;;;4.37;61.33
76553;BME280;65395;53.168;18.156;2023-02-28T12:03:24;102610.66;;;4.44;60.74
76553;BME280;65395;53.168;18.156;2023-02-28T12:06:21;102607.48;;;4.50;61.27
76553;BME280;65395;53.168;18.156;2023-02-28T12:09:04;102603.15;;;4.58;60.68
76553;BME280;65395;53.168;18.156;2023-02-28T12:11:51;102601.36;;;4.67;60.63
76553;BME280;65395;53.168;18.156;2023-02-28T12:22:59;102596.67;;;5.06;59.73
76553;BME280;65395;53.168;18.156;2023-02-28T12:25:57;102596.84;;;5.17;58.92
76553;BME280;65395;53.168;18.156;2023-02-28T12:28:32;102599.01;;;5.24;59.07
76553;BME280;65395;53.168;18.156;2023-02-28T12:31:06;102600.92;;;5.31;58.80
76553;BME280;65395;53.168;18.156;2023-02-28T12:33:40;102598.80;;;5.41;58.93
76553;BME280;65395;53.168;18.156;2023-02-28T12:36:13;102595.16;;;5.52;57.97
76553;BME280;65395;53.168;18.156;2023-02-28T12:38:48;102589.11;;;5.60;57.32
76553;BME280;65395;53.168;18.156;2023-02-28T12:41:19;102585.06;;;5.68;58.30
76553;BME280;65395;53.168;18.156;2023-02-28T12:44:01;102581.30;;;5.78;58.03
76553;BME280;65395;53.168;18.156;2023-02-28T12:46:41;102580.00;;;5.90;57.90
76553;BME280;65395;53.168;18.156;2023-02-28T12:49:20;102578.98;;;6.02;56.91
76553;BME280;65395;53.168;18.156;2023-02-28T12:51:49;102573.40;;;6.10;55.62
76553;BME280;65395;53.168;18.156;2023-02-28T12:54:29;102569.16;;;6.13;55.16
76553;BME280;65395;53.168;18.156;2023-02-28T12:57:15;102566.08;;;6.19;56.44
76553;BME280;65395;53.168;18.156;2023-02-28T12:59:52;102564.77;;;6.31;56.24
76553;BME280;65395;53.168;18.156;2023-02-28T13:05:24;102555.29;;;6.59;55.58
76553;BME280;65395;53.168;18.156;2023-02-28T13:08:22;102552.02;;;6.69;55.23
76553;BME280;65395;53.168;18.156;2023-02-28T13:10:55;102540.34;;;6.74;54.89
76553;BME280;65395;53.168;18.156;2023-02-28T13:13:28;102551.86;;;6.90;54.79
76553;BME280;65395;53.168;18.156;2023-02-28T13:15:58;102550.66;;;7.04;54.25
76553;BME280;65395;53.168;18.156;2023-02-28T13:18:30;102550.89;;;7.15;54.09
76553;BME280;65395;53.168;18.156;2023-02-28T13:21:00;102548.08;;;7.27;53.53
76553;BME280;65395;53.168;18.156;2023-02-28T13:29:30;102537.14;;;7.69;52.58
76553;BME280;65395;53.168;18.156;2023-02-28T13:32:18;102530.02;;;7.81;52.12
76553;BME280;65395;53.168;18.156;2023-02-28T13:35:14;102529.11;;;7.89;51.68
76553;BME280;65395;53.168;18.156;2023-02-28T13:37:43;102530.17;;;8.01;51.65
76553;BME280;65395;53.168;18.156;2023-02-28T13:40:32;102529.64;;;8.10;49.66
76553;BME280;65395;53.168;18.156;2023-02-28T13:43:08;102526.64;;;8.14;47.31
76553;BME280;65395;53.168;18.156;2023-02-28T13:45:35;102523.55;;;8.15;47.43
76553;BME280;65395;53.168;18.156;2023-02-28T13:48:16;102527.58;;;8.16;48.60
76553;BME280;65395;53.168;18.156;2023-02-28T13:50:45;102528.27;;;8.14;46.95
76553;BME280;65395;53.168;18.156;2023-02-28T13:53:30;102528.08;;;8.11;48.19